createdAt,value
2022-10-04T00:01:07.226Z,2.80
2022-10-04T00:06:18.465Z,2.97
2022-10-04T00:11:27.148Z,2.60
2022-10-04T00:16:33.260Z,2.70
2022-10-04T00:22:12.823Z,2.90
2022-10-04T00:27:23.508Z,2.83
2022-10-04T00:32:30.624Z,2.90
2022-10-04T00:37:58.394Z,2.90
2022-10-04T00:43:06.339Z,2.40
2022-10-04T00:48:38.798Z,3.17
2022-10-04T00:53:50.978Z,3.07
2022-10-04T00:59:33.471Z,3.40
2022-10-04T01:04:44.590Z,3.30
2022-10-04T01:09:56.575Z,3.17
2022-10-04T01:15:08.784Z,3.10
2022-10-04T01:20:34.294Z,3.23
2022-10-04T01:25:51.320Z,2.80
2022-10-04T01:30:55.862Z,3.20
2022-10-04T01:35:59.413Z,3.17
2022-10-04T01:41:07.438Z,2.70
2022-10-04T01:46:15.760Z,2.40
2022-10-04T01:51:23.345Z,3.00
2022-10-04T01:56:33.237Z,2.93
2022-10-04T02:01:41.613Z,2.93
2022-10-04T02:06:48.017Z,3.20
2022-10-04T02:11:54.642Z,3.03
2022-10-04T02:16:58.536Z,2.70
2022-10-04T02:22:05.613Z,2.40
2022-10-04T02:27:10.618Z,2.53
2022-10-04T02:32:33.258Z,2.80
2022-10-04T02:37:39.922Z,2.80
2022-10-04T02:42:49.362Z,2.60
2022-10-04T02:47:59.236Z,2.47
2022-10-04T02:53:13.550Z,2.90
2022-10-04T02:58:21.362Z,2.83
2022-10-04T03:03:28.229Z,3.00
2022-10-04T03:08:35.917Z,3.10
2022-10-04T03:13:43.042Z,3.50
2022-10-04T03:18:48.282Z,3.70
2022-10-04T03:23:53.286Z,3.10
2022-10-04T03:28:59.389Z,3.60
2022-10-04T03:34:02.947Z,3.63
2022-10-04T03:39:11.551Z,3.40
2022-10-04T03:44:18.415Z,3.93
2022-10-04T03:49:32.606Z,3.67
2022-10-04T03:54:37.165Z,3.20
2022-10-04T03:59:43.440Z,3.70
2022-10-04T04:04:54.877Z,3.40
2022-10-04T04:10:07.209Z,3.50
2022-10-04T04:15:15.188Z,4.57
2022-10-04T04:20:26.259Z,4.60
2022-10-04T04:25:33.466Z,4.40
2022-10-04T04:30:40.581Z,3.70
2022-10-04T04:35:44.249Z,3.10
2022-10-04T04:40:47.948Z,2.83
2022-10-04T04:46:25.466Z,2.80
2022-10-04T04:51:26.698Z,2.87
2022-10-04T04:56:31.616Z,2.80
2022-10-04T05:01:38.282Z,4.17
2022-10-04T05:06:43.609Z,4.60
2022-10-04T05:11:47.970Z,3.53
2022-10-04T05:16:54.669Z,3.73
2022-10-04T05:21:59.975Z,4.47
2022-10-04T05:27:09.378Z,3.37
2022-10-04T05:32:25.531Z,3.30
2022-10-04T05:37:53.576Z,3.20
2022-10-04T05:42:58.583Z,3.20
2022-10-04T05:48:09.257Z,4.17
2022-10-04T05:53:25.358Z,4.47
2022-10-04T05:58:48.363Z,5.73
2022-10-04T06:04:31.201Z,6.00
2022-10-04T06:09:54.988Z,5.90
2022-10-04T06:15:09.663Z,4.90
2022-10-04T06:20:36.185Z,6.43
2022-10-04T06:25:46.404Z,8.10
2022-10-04T06:31:11.212Z,5.77
2022-10-04T06:36:48.221Z,6.57
2022-10-04T06:42:34.155Z,4.77
2022-10-04T06:47:52.871Z,4.73
2022-10-04T06:53:15.793Z,6.27
2022-10-04T06:58:48.308Z,6.30
2022-10-04T07:03:57.271Z,5.00
2022-10-04T07:09:08.137Z,4.10
2022-10-04T07:14:17.721Z,5.07
2022-10-04T07:19:36.774Z,5.50
2022-10-04T07:25:08.415Z,5.40
2022-10-04T07:30:16.442Z,6.47
2022-10-04T07:35:28.183Z,5.50
2022-10-04T07:40:37.467Z,5.10
2022-10-04T07:45:43.142Z,5.80
2022-10-04T07:50:58.058Z,4.97
2022-10-04T07:56:09.442Z,3.50
2022-10-04T08:01:26.013Z,3.67
2022-10-04T08:06:36.850Z,4.13
2022-10-04T08:11:52.366Z,3.40
2022-10-04T08:17:15.610Z,3.40
2022-10-04T08:22:35.775Z,4.10
2022-10-04T08:28:17.298Z,3.70
2022-10-04T08:33:32.648Z,3.60
2022-10-04T08:38:45.301Z,3.87
2022-10-04T08:44:27.455Z,3.70
2022-10-04T08:50:02.149Z,3.53
2022-10-04T08:55:48.494Z,3.83
2022-10-04T09:01:07.820Z,3.37
2022-10-04T09:06:27.785Z,3.23
2022-10-04T09:11:46.953Z,3.87
2022-10-04T09:16:53.751Z,2.73
2022-10-04T09:22:19.817Z,2.80
2022-10-04T09:27:54.754Z,2.87
2022-10-04T09:33:32.451Z,2.47
2022-10-04T09:39:29.440Z,2.73
2022-10-04T09:45:06.466Z,2.50
2022-10-04T09:50:42.033Z,2.70
2022-10-04T09:56:16.434Z,1.83
2022-10-04T11:36:45.434Z,1.87
2022-10-04T11:42:24.429Z,1.17
2022-10-04T11:47:43.580Z,2.00
2022-10-04T12:12:54.859Z,1.50
2022-10-04T12:18:50.341Z,1.60
2022-10-04T12:24:42.736Z,1.63
2022-10-04T12:30:27.571Z,1.70
2022-10-04T12:42:44.506Z,1.47
2022-10-04T12:48:43.376Z,1.57
2022-10-04T13:00:28.864Z,1.50
2022-10-04T16:19:40.327Z,1.80
2022-10-04T16:24:49.143Z,2.30
2022-10-04T16:30:25.466Z,2.17
2022-10-04T16:35:32.749Z,2.17
2022-10-04T16:40:58.159Z,1.60
2022-10-04T16:46:18.523Z,2.03
2022-10-04T16:52:03.587Z,2.10
2022-10-04T16:57:17.403Z,1.80
2022-10-04T17:03:01.222Z,1.90
2022-10-04T17:08:25.222Z,1.60
2022-10-04T17:13:35.913Z,1.77
2022-10-04T17:18:52.111Z,2.10
2022-10-04T17:24:15.361Z,1.60
2022-10-04T17:29:38.025Z,1.80
2022-10-04T17:34:52.392Z,1.70
2022-10-04T17:40:10.622Z,1.57
2022-10-04T17:45:27.789Z,1.40
2022-10-04T17:50:58.262Z,1.40
2022-10-04T17:56:07.755Z,2.40
2022-10-04T18:01:16.885Z,10.27
2022-10-04T18:06:31.247Z,3.63
2022-10-04T18:11:47.519Z,3.17
2022-10-04T18:16:55.556Z,1.90
2022-10-04T18:22:12.762Z,1.60
2022-10-04T18:27:22.411Z,1.90
2022-10-04T18:32:48.036Z,1.50
2022-10-04T18:37:53.823Z,1.50
2022-10-04T18:43:02.092Z,1.40
2022-10-04T18:48:18.542Z,1.53
2022-10-04T18:53:45.433Z,1.20
2022-10-04T18:59:25.524Z,1.30
2022-10-04T19:04:47.335Z,1.33
2022-10-04T19:10:24.408Z,1.40
2022-10-04T19:15:46.722Z,1.50
2022-10-04T19:21:00.229Z,1.77
2022-10-04T19:26:31.140Z,1.43
2022-10-04T19:31:51.076Z,1.60
2022-10-04T19:37:03.013Z,1.60
2022-10-04T19:42:14.518Z,1.30
2022-10-04T19:47:36.262Z,1.40
2022-10-04T19:52:46.109Z,1.60
2022-10-04T19:57:55.798Z,1.57
2022-10-04T20:03:01.575Z,1.60
2022-10-04T20:08:11.615Z,1.63
2022-10-04T20:13:26.154Z,2.20
2022-10-04T20:19:11.183Z,2.27
2022-10-04T20:24:20.188Z,1.73
2022-10-04T20:30:04.572Z,2.40
2022-10-04T20:35:11.797Z,2.10
2022-10-04T20:40:46.667Z,2.17
2022-10-04T20:45:51.536Z,4.23
2022-10-04T20:50:56.247Z,2.90
2022-10-04T20:56:19.926Z,1.60
2022-10-04T21:06:56.431Z,1.27
2022-10-04T21:12:01.406Z,1.30
2022-10-04T21:17:05.891Z,1.30
2022-10-04T21:22:12.208Z,1.70
2022-10-04T21:27:28.427Z,2.10
2022-10-04T21:32:36.722Z,2.10
2022-10-04T21:37:41.971Z,2.00
2022-10-04T21:42:45.490Z,2.40
2022-10-04T21:47:48.994Z,2.80
2022-10-04T21:52:53.891Z,3.10
2022-10-04T21:57:57.351Z,3.27
2022-10-04T22:03:00.937Z,3.10
2022-10-04T22:08:05.825Z,2.73
2022-10-04T22:13:09.262Z,2.70
2022-10-04T22:18:12.837Z,3.00
2022-10-04T22:23:21.410Z,2.83
2022-10-04T22:28:26.923Z,2.73
2022-10-04T22:33:52.212Z,2.43
2022-10-04T22:39:01.141Z,2.53
2022-10-04T22:44:13.775Z,2.33
2022-10-04T22:49:19.174Z,2.40
2022-10-04T22:54:25.979Z,2.10
2022-10-04T22:59:40.920Z,2.13
2022-10-04T23:04:47.364Z,2.33
2022-10-04T23:09:52.395Z,2.43
2022-10-04T23:14:56.421Z,2.43
2022-10-04T23:20:03.383Z,2.50
2022-10-04T23:25:15.305Z,2.20
2022-10-04T23:30:20.781Z,2.20
2022-10-04T23:35:26.635Z,2.43
2022-10-04T23:40:31.515Z,2.60
2022-10-04T23:45:42.077Z,2.20
2022-10-04T23:50:45.678Z,2.10
2022-10-04T23:55:50.744Z,2.70
